Time;durP1;ratioP1;P1;durP2;ratioP2;P2;SDS_P1;SDS_P2;PMS_P1;PMS_P2;Temp;Humidity;BMP_temperature;BMP_pressure;BME280_temperature;BME280_humidity;BME280_pressure;Samples;Min_cycle;Max_cycle;Signal;HPM_P1;HPM_P2
2023/03/28 01:04:00;;;;;;;1999.90;999.90;;;;;;;;;;6160046;22;1250593;-74
2023/03/28 01:06:47;;;;;;;1999.90;999.90;;;;;;;;;;6213814;23;20657;-74
2023/03/28 01:09:32;;;;;;;1999.90;999.90;;;;;;;;;;6214569;23;20269;-74
2023/03/28 01:12:19;;;;;;;1999.90;999.90;;;;;;;;;;6214376;23;20277;-74
2023/03/28 01:15:04;;;;;;;1999.90;999.90;;;;;;;;;;6214880;23;20247;-75
2023/03/28 01:17:50;;;;;;;1999.90;999.90;;;;;;;;;;6214785;23;20169;-74
2023/03/28 01:20:51;;;;;;;1999.90;999.90;;;;;;;;;;6214442;23;20218;-74
2023/03/28 01:23:54;;;;;;;1999.90;999.90;;;;;;;;;;6213298;23;20209;-70
2023/03/28 01:26:48;;;;;;;1999.90;999.90;;;;;;;;;;6208742;23;20737;-73
2023/03/28 01:30:00;;;;;;;1999.90;999.90;;;;;;;;;;6213549;23;20375;-73
2023/03/28 01:32:58;;;;;;;1999.90;999.90;;;;;;;;;;6214929;23;20197;-75
2023/03/28 01:35:58;;;;;;;1999.90;999.90;;;;;;;;;;6213725;23;20625;-74
2023/03/28 01:38:47;;;;;;;1999.90;999.90;;;;;;;;;;6213823;23;20656;-70
2023/03/28 01:41:38;;;;;;;1999.90;999.90;;;;;;;;;;6213537;23;20756;-71
2023/03/28 01:44:28;;;;;;;1999.90;999.90;;;;;;;;;;6213970;23;20645;-73
2023/03/28 01:47:15;;;;;;;1999.90;999.90;;;;;;;;;;6213329;23;20169;-74
2023/03/28 01:50:02;;;;;;;1999.90;999.90;;;;;;;;;;6214546;23;20212;-74
2023/03/28 01:52:52;;;;;;;1999.90;999.90;;;;;;;;;;6214064;23;20200;-73
2023/03/28 01:55:40;;;;;;;1999.90;999.90;;;;;;;;;;6214110;23;20173;-74
2023/03/28 01:58:30;;;;;;;1999.90;999.90;;;;;;;;;;6214174;23;20412;-74
2023/03/28 02:01:17;;;;;;;1999.90;999.90;;;;;;;;;;6214280;23;20419;-75
2023/03/28 02:04:04;;;;;;;1999.90;999.90;;;;;;;;;;6213223;23;20379;-74
2023/03/28 02:06:49;;;;;;;1999.90;999.90;;;;;;;;;;6213985;23;20165;-74
2023/03/28 02:09:36;;;;;;;1999.90;999.90;;;;;;;;;;6213647;23;20460;-75
2023/03/28 02:12:25;;;;;;;1999.90;999.90;;;;;;;;;;6213590;23;20728;-74
2023/03/28 02:15:13;;;;;;;1999.90;999.90;;;;;;;;;;6213761;23;20212;-75
2023/03/28 02:18:01;;;;;;;1999.90;999.90;;;;;;;;;;6213743;23;20256;-74
2023/03/28 02:20:50;;;;;;;1999.90;999.90;;;;;;;;;;6213492;23;20374;-74
2023/03/28 02:23:37;;;;;;;1999.90;999.90;;;;;;;;;;6213721;23;20670;-75
2023/03/28 02:26:23;;;;;;;1999.90;999.90;;;;;;;;;;6213666;23;20423;-74
2023/03/28 02:29:11;;;;;;;1999.90;999.90;;;;;;;;;;6213435;23;20191;-75
2023/03/28 02:31:56;;;;;;;1999.90;999.90;;;;;;;;;;6213433;23;20200;-74
2023/03/28 02:34:41;;;;;;;1999.90;999.90;;;;;;;;;;6213612;23;20851;-75
2023/03/28 02:37:31;;;;;;;1999.90;999.90;;;;;;;;;;6213455;23;20367;-74
2023/03/28 02:40:37;;;;;;;1999.90;999.90;;;;;;;;;;6214479;23;20696;-74
2023/03/28 02:43:56;;;;;;;1999.90;999.90;;;;;;;;;;6213526;23;20398;-75
2023/03/28 02:46:48;;;;;;;1999.90;999.90;;;;;;;;;;6063789;23;20447;-75
2023/03/28 02:49:46;;;;;;;1999.90;999.90;;;;;;;;;;6064861;23;20432;-74
2023/03/28 02:52:39;;;;;;;1999.90;999.90;;;;;;;;;;6207473;23;20770;-75
2023/03/28 02:55:28;;;;;;;1999.90;999.90;;;;;;;;;;6215479;23;20266;-74
2023/03/28 02:58:14;;;;;;;1999.90;999.90;;;;;;;;;;6215366;23;20383;-74
2023/03/28 03:01:01;;;;;;;1999.90;999.90;;;;;;;;;;6215127;23;20180;-72
2023/03/28 03:03:48;;;;;;;1999.90;999.90;;;;;;;;;;6213504;23;20906;-74
2023/03/28 03:06:35;;;;;;;1999.90;999.90;;;;;;;;;;6215653;23;20454;-74
2023/03/28 03:09:21;;;;;;;1999.90;999.90;;;;;;;;;;6215412;23;20166;-74
2023/03/28 03:12:06;;;;;;;1999.90;999.90;;;;;;;;;;6215066;23;20200;-74
2023/03/28 03:14:52;;;;;;;1999.90;999.90;;;;;;;;;;6215360;23;20165;-74
2023/03/28 03:17:37;;;;;;;1999.90;999.90;;;;;;;;;;6215274;23;20661;-75
2023/03/28 03:20:24;;;;;;;1999.90;999.90;;;;;;;;;;6215095;23;20173;-75
2023/03/28 03:23:09;;;;;;;1999.90;999.90;;;;;;;;;;6215152;23;20669;-75
2023/03/28 03:25:54;;;;;;;1999.90;999.90;;;;;;;;;;6215329;23;20401;-75
2023/03/28 03:28:39;;;;;;;1999.90;999.90;;;;;;;;;;6215295;23;20212;-74
2023/03/28 03:31:25;;;;;;;1999.90;999.90;;;;;;;;;;6215050;23;20185;-74
2023/03/28 03:34:10;;;;;;;1999.90;999.90;;;;;;;;;;6215423;23;20623;-74
2023/03/28 03:36:56;;;;;;;1999.90;999.90;;;;;;;;;;6213899;23;20372;-74
2023/03/28 03:39:41;;;;;;;1999.90;999.90;;;;;;;;;;6215429;23;20207;-74
2023/03/28 03:42:26;;;;;;;1999.90;999.90;;;;;;;;;;6214960;23;20551;-74
2023/03/28 03:45:12;;;;;;;1999.90;999.90;;;;;;;;;;6215403;23;20205;-74
2023/03/28 03:47:57;;;;;;;1999.90;999.90;;;;;;;;;;6214827;23;20494;-74
2023/03/28 03:50:42;;;;;;;1999.90;999.90;;;;;;;;;;6215346;23;20165;-74
2023/03/28 03:53:28;;;;;;;1999.90;999.90;;;;;;;;;;6215143;23;20404;-74
2023/03/28 03:56:13;;;;;;;1999.90;999.90;;;;;;;;;;6215353;23;20367;-74
2023/03/28 03:58:58;;;;;;;1999.90;999.90;;;;;;;;;;6215048;23;20375;-74
2023/03/28 04:01:43;;;;;;;1999.90;999.90;;;;;;;;;;6214668;23;20211;-74
2023/03/28 04:04:28;;;;;;;1999.90;999.90;;;;;;;;;;6215050;23;20367;-74
2023/03/28 04:07:14;;;;;;;1999.90;999.90;;;;;;;;;;6214909;23;20165;-74
2023/03/28 04:10:00;;;;;;;1999.90;999.90;;;;;;;;;;6214498;23;20375;-74
2023/03/28 04:12:45;;;;;;;1999.90;999.90;;;;;;;;;;6214866;23;20737;-73
2023/03/28 04:15:30;;;;;;;1999.90;999.90;;;;;;;;;;6214858;23;20229;-74
2023/03/28 04:18:16;;;;;;;1999.90;999.90;;;;;;;;;;6214941;23;20165;-74
2023/03/28 04:21:01;;;;;;;1999.90;999.90;;;;;;;;;;6213439;23;20455;-74
2023/03/28 04:23:47;;;;;;;1999.90;999.90;;;;;;;;;;6214707;23;20277;-74
2023/03/28 04:26:36;;;;;;;1999.90;999.90;;;;;;;;;;6214925;23;20165;-74
2023/03/28 04:29:24;;;;;;;1999.90;999.90;;;;;;;;;;6214906;23;20390;-74
2023/03/28 04:32:10;;;;;;;1999.90;999.90;;;;;;;;;;6214211;23;20383;-74
2023/03/28 04:34:54;;;;;;;1999.90;999.90;;;;;;;;;;6214510;23;20176;-74
2023/03/28 04:37:39;;;;;;;1999.90;999.90;;;;;;;;;;6214510;23;20700;-74
2023/03/28 04:40:26;;;;;;;1999.90;999.90;;;;;;;;;;6214393;23;20367;-74
2023/03/28 04:43:13;;;;;;;1999.90;999.90;;;;;;;;;;6214579;23;20439;-74
2023/03/28 04:45:58;;;;;;;1999.90;999.90;;;;;;;;;;6214779;23;20365;-75
2023/03/28 04:48:43;;;;;;;1999.90;999.90;;;;;;;;;;6214596;23;20866;-74
2023/03/28 04:51:28;;;;;;;1999.90;999.90;;;;;;;;;;6214180;23;20371;-74
2023/03/28 04:54:13;;;;;;;1999.90;999.90;;;;;;;;;;6214544;23;20435;-75
2023/03/28 04:56:58;;;;;;;1999.90;999.90;;;;;;;;;;6214629;23;20609;-75
2023/03/28 04:59:44;;;;;;;1999.90;999.90;;;;;;;;;;6214488;23;20389;-75
2023/03/28 05:02:29;;;;;;;1999.90;999.90;;;;;;;;;;6213983;23;20447;-75
2023/03/28 05:05:14;;;;;;;1999.90;999.90;;;;;;;;;;6214415;23;20386;-74
2023/03/28 05:08:00;;;;;;;1999.90;999.90;;;;;;;;;;6213794;23;20378;-75
2023/03/28 05:10:46;;;;;;;1999.90;999.90;;;;;;;;;;6213410;23;20169;-74
2023/03/28 05:13:32;;;;;;;1999.90;999.90;;;;;;;;;;6214068;23;20454;-75
2023/03/28 05:16:18;;;;;;;1999.90;999.90;;;;;;;;;;6214213;23;20368;-74
2023/03/28 05:19:03;;;;;;;1999.90;999.90;;;;;;;;;;6213952;23;20367;-75
2023/03/28 05:21:48;;;;;;;1999.90;999.90;;;;;;;;;;6212019;23;20453;-73
2023/03/28 05:24:33;;;;;;;1999.90;999.90;;;;;;;;;;6214131;23;20169;-75
2023/03/28 05:27:18;;;;;;;1999.90;999.90;;;;;;;;;;6213759;23;20368;-73
2023/03/28 05:30:04;;;;;;;1999.90;999.90;;;;;;;;;;6213800;23;20168;-74
2023/03/28 05:32:50;;;;;;;1999.90;999.90;;;;;;;;;;6213740;23;20401;-74
2023/03/28 05:35:36;;;;;;;1999.90;999.90;;;;;;;;;;6213950;23;20221;-73
2023/03/28 05:38:21;;;;;;;1999.90;999.90;;;;;;;;;;6214090;23;20169;-71
2023/03/28 05:41:07;;;;;;;1999.90;999.90;;;;;;;;;;6213704;23;20367;-71
2023/03/28 05:43:52;;;;;;;1999.90;999.90;;;;;;;;;;6213770;23;20515;-71
2023/03/28 05:46:37;;;;;;;1999.90;999.90;;;;;;;;;;6213915;23;20387;-72
2023/03/28 05:49:23;;;;;;;1999.90;999.90;;;;;;;;;;6213851;23;20606;-67
2023/03/28 05:52:09;;;;;;;1999.90;999.90;;;;;;;;;;6213286;23;20397;-71
2023/03/28 05:54:56;;;;;;;1999.90;999.90;;;;;;;;;;6213888;23;20436;-70
2023/03/28 05:57:42;;;;;;;1999.90;999.90;;;;;;;;;;6213652;23;20419;-72
2023/03/28 06:00:27;;;;;;;1999.90;999.90;;;;;;;;;;6213662;23;20174;-71
2023/03/28 06:03:14;;;;;;;1999.90;999.90;;;;;;;;;;6213645;23;20462;-72
2023/03/28 06:06:00;;;;;;;1999.90;999.90;;;;;;;;;;6214014;23;20165;-72
2023/03/28 06:08:45;;;;;;;1999.90;999.90;;;;;;;;;;6212050;23;20748;-72
2023/03/28 06:11:30;;;;;;;1999.90;999.90;;;;;;;;;;6213513;23;20217;-72
2023/03/28 06:14:15;;;;;;;1999.90;999.90;;;;;;;;;;6213899;23;20173;-71
2023/03/28 06:17:00;;;;;;;1999.90;999.90;;;;;;;;;;6214006;23;20633;-70
2023/03/28 06:19:45;;;;;;;1999.90;999.90;;;;;;;;;;6214619;23;20693;-70
2023/03/28 06:22:32;;;;;;;1999.90;999.90;;;;;;;;;;6214566;23;20216;-70
2023/03/28 06:25:18;;;;;;;1999.90;999.90;;;;;;;;;;6216695;23;20486;-71
2023/03/28 06:28:03;;;;;;;1999.90;999.90;;;;;;;;;;6216089;23;20209;-69
2023/03/28 06:30:49;;;;;;;1999.90;999.90;;;;;;;;;;6216062;23;20174;-72
2023/03/28 06:33:34;;;;;;;1999.90;999.90;;;;;;;;;;6216372;23;20200;-68
2023/03/28 06:36:19;;;;;;;1999.90;999.90;;;;;;;;;;6216371;23;20606;-72
2023/03/28 06:39:05;;;;;;;1999.90;999.90;;;;;;;;;;6215410;23;20170;-72
2023/03/28 06:41:50;;;;;;;1999.90;999.90;;;;;;;;;;6213776;23;20708;-72
2023/03/28 06:44:34;;;;;;;1999.90;999.90;;;;;;;;;;6215600;23;20167;-72
2023/03/28 06:47:19;;;;;;;1999.90;999.90;;;;;;;;;;6215126;23;20169;-71
2023/03/28 06:50:05;;;;;;;1999.90;999.90;;;;;;;;;;6215445;23;20171;-71
2023/03/28 06:52:50;;;;;;;1999.90;999.90;;;;;;;;;;6215220;23;20213;-71
2023/03/28 06:55:36;;;;;;;1999.90;999.90;;;;;;;;;;6215620;23;20233;-72
2023/03/28 06:58:22;;;;;;;1999.90;999.90;;;;;;;;;;6215537;23;20171;-71
2023/03/28 07:01:07;;;;;;;1999.90;999.90;;;;;;;;;;6214981;23;20215;-71
2023/03/28 07:03:52;;;;;;;1999.90;999.90;;;;;;;;;;6212756;23;20189;-72
2023/03/28 07:06:37;;;;;;;1999.90;999.90;;;;;;;;;;6213355;23;20188;-72
2023/03/28 07:09:22;;;;;;;1999.90;999.90;;;;;;;;;;6212699;23;20168;-72
2023/03/28 07:12:08;;;;;;;1999.90;999.90;;;;;;;;;;6214724;23;20205;-71
2023/03/28 07:14:54;;;;;;;1999.90;999.90;;;;;;;;;;6215155;23;20165;-71
2023/03/28 07:17:39;;;;;;;1999.90;999.90;;;;;;;;;;6215227;23;20168;-72
2023/03/28 07:20:24;;;;;;;1999.90;999.90;;;;;;;;;;6215002;23;20248;-71
2023/03/28 07:23:09;;;;;;;1999.90;999.90;;;;;;;;;;6214834;23;20205;-72
2023/03/28 07:25:54;;;;;;;1999.90;999.90;;;;;;;;;;6215162;23;20512;-72
2023/03/28 07:28:40;;;;;;;1999.90;999.90;;;;;;;;;;6215129;23;20278;-72
2023/03/28 07:31:25;;;;;;;1999.90;999.90;;;;;;;;;;6214327;23;20173;-72
2023/03/28 07:34:10;;;;;;;1999.90;999.90;;;;;;;;;;6214446;23;20168;-72
2023/03/28 07:36:55;;;;;;;1999.90;999.90;;;;;;;;;;6214877;23;20173;-72
2023/03/28 07:39:42;;;;;;;1999.90;999.90;;;;;;;;;;6214920;23;20177;-72
2023/03/28 07:42:27;;;;;;;1999.90;999.90;;;;;;;;;;6213221;23;20394;-74
2023/03/28 07:45:13;;;;;;;1999.90;999.90;;;;;;;;;;6214748;23;20504;-71
2023/03/28 07:47:58;;;;;;;1999.90;999.90;;;;;;;;;;6214517;23;20169;-70
2023/03/28 07:50:43;;;;;;;1999.90;999.90;;;;;;;;;;6214704;23;20285;-72
2023/03/28 07:53:28;;;;;;;1999.90;999.90;;;;;;;;;;6214735;23;20197;-72
2023/03/28 07:56:13;;;;;;;1999.90;999.90;;;;;;;;;;6214295;23;20165;-72
2023/03/28 07:59:00;;;;;;;1999.90;999.90;;;;;;;;;;6214476;23;20165;-72
2023/03/28 08:01:47;;;;;;;1999.90;999.90;;;;;;;;;;6214481;23;20993;-71
2023/03/28 08:04:32;;;;;;;1999.90;999.90;;;;;;;;;;6214541;23;20519;-72
2023/03/28 08:07:17;;;;;;;1999.90;999.90;;;;;;;;;;6214763;23;20169;-72
2023/03/28 08:10:03;;;;;;;1999.90;999.90;;;;;;;;;;6214355;23;20171;-72
2023/03/28 08:12:48;;;;;;;1999.90;999.90;;;;;;;;;;6214524;23;20201;-74
2023/03/28 08:15:33;;;;;;;1999.90;999.90;;;;;;;;;;6214756;23;20674;-72
2023/03/28 08:18:20;;;;;;;1999.90;999.90;;;;;;;;;;6214422;23;20169;-72
2023/03/28 08:21:06;;;;;;;1999.90;999.90;;;;;;;;;;6214462;23;20166;-72
2023/03/28 08:23:52;;;;;;;1999.90;999.90;;;;;;;;;;6214320;23;20190;-72
2023/03/28 08:26:37;;;;;;;1999.90;999.90;;;;;;;;;;6212988;23;20379;-72
2023/03/28 08:29:22;;;;;;;1999.90;999.90;;;;;;;;;;6214518;23;20170;-71
2023/03/28 08:32:07;;;;;;;1999.90;999.90;;;;;;;;;;6214043;23;20208;-73
2023/03/28 08:34:54;;;;;;;1999.90;999.90;;;;;;;;;;6213214;23;20178;-73
2023/03/28 08:37:39;;;;;;;1999.90;999.90;;;;;;;;;;6214975;23;20169;-74
2023/03/28 08:40:25;;;;;;;1999.90;999.90;;;;;;;;;;6214520;23;20169;-72
2023/03/28 08:43:25;;;;;;;1999.90;999.90;;;;;;;;;;6214254;23;20535;-72
2023/03/28 08:46:11;;;;;;;1999.90;999.90;;;;;;;;;;6212826;23;20170;-74
2023/03/28 08:48:57;;;;;;;1999.90;999.90;;;;;;;;;;6213082;23;20608;-73
2023/03/28 08:51:46;;;;;;;1999.90;999.90;;;;;;;;;;6214007;23;20204;-73
2023/03/28 08:54:35;;;;;;;1999.90;999.90;;;;;;;;;;6214324;23;20678;-71
2023/03/28 08:57:22;;;;;;;1999.90;999.90;;;;;;;;;;6214246;23;20170;-72
2023/03/28 09:00:14;;;;;;;1999.90;999.90;;;;;;;;;;6214171;23;20170;-73
2023/03/28 09:02:59;;;;;;;1999.90;999.90;;;;;;;;;;6213962;23;20213;-73
2023/03/28 09:05:47;;;;;;;1999.90;999.90;;;;;;;;;;6214375;23;20193;-73
2023/03/28 09:08:41;;;;;;;1999.90;999.90;;;;;;;;;;6214310;23;20258;-73
2023/03/28 09:11:32;;;;;;;1999.90;999.90;;;;;;;;;;6212405;23;20375;-71
2023/03/28 09:14:23;;;;;;;1999.90;999.90;;;;;;;;;;6214160;23;20166;-74
2023/03/28 09:17:12;;;;;;;1999.90;999.90;;;;;;;;;;6214101;23;20165;-73
2023/03/28 09:20:10;;;;;;;1999.90;999.90;;;;;;;;;;6214049;23;20170;-72
2023/03/28 09:23:06;;;;;;;1999.90;999.90;;;;;;;;;;6214115;23;20208;-73
2023/03/28 09:25:55;;;;;;;1999.90;999.90;;;;;;;;;;6214071;23;20213;-73
2023/03/28 09:28:44;;;;;;;1999.90;999.90;;;;;;;;;;6214122;23;20535;-73
2023/03/28 09:31:31;;;;;;;1999.90;999.90;;;;;;;;;;6213873;23;20556;-73
2023/03/28 09:34:19;;;;;;;1999.90;999.90;;;;;;;;;;6214084;23;20166;-73
2023/03/28 09:37:13;;;;;;;1999.90;999.90;;;;;;;;;;6214052;23;20638;-73
2023/03/28 09:40:00;;;;;;;1999.90;999.90;;;;;;;;;;6213790;23;20189;-72
2023/03/28 09:42:51;;;;;;;1999.90;999.90;;;;;;;;;;6214047;23;20205;-73
2023/03/28 09:45:41;;;;;;;1999.90;999.90;;;;;;;;;;6213959;23;20665;-73
2023/03/28 09:48:27;;;;;;;1999.90;999.90;;;;;;;;;;6213941;23;20245;-73
2023/03/28 09:51:14;;;;;;;1999.90;999.90;;;;;;;;;;6213761;23;20169;-73
2023/03/28 09:53:59;;;;;;;1999.90;999.90;;;;;;;;;;6213763;23;20708;-73
2023/03/28 09:56:45;;;;;;;1999.90;999.90;;;;;;;;;;6213881;23;20248;-73
2023/03/28 09:59:32;;;;;;;1999.90;999.90;;;;;;;;;;6213987;23;20236;-73
2023/03/28 10:02:35;;;;;;;1999.90;999.90;;;;;;;;;;6213430;23;20283;-73
2023/03/28 10:05:30;;;;;;;1999.90;999.90;;;;;;;;;;6213725;23;20523;-72
2023/03/28 10:08:22;;;;;;;1999.90;999.90;;;;;;;;;;6213771;23;20248;-73
2023/03/28 10:11:13;;;;;;;1999.90;999.90;;;;;;;;;;6213705;23;20173;-73
2023/03/28 10:13:58;;;;;;;1999.90;999.90;;;;;;;;;;6213875;23;20550;-72
2023/03/28 10:16:44;;;;;;;1999.90;999.90;;;;;;;;;;6213787;23;20169;-73
2023/03/28 10:19:32;;;;;;;1999.90;999.90;;;;;;;;;;6213791;23;20169;-73
2023/03/28 10:22:22;;;;;;;1999.90;999.90;;;;;;;;;;6213612;23;20281;-73
2023/03/28 10:25:08;;;;;;;1999.90;999.90;;;;;;;;;;6213754;23;20193;-73
2023/03/28 10:27:53;;;;;;;1999.90;999.90;;;;;;;;;;6212005;23;20461;-72
2023/03/28 10:30:38;;;;;;;1999.90;999.90;;;;;;;;;;6213533;23;20548;-72
2023/03/28 10:33:26;;;;;;;1999.90;999.90;;;;;;;;;;6213702;23;20205;-73
2023/03/28 10:36:11;;;;;;;1999.90;999.90;;;;;;;;;;6213813;23;20169;-73
2023/03/28 10:38:56;;;;;;;1999.90;999.90;;;;;;;;;;6213714;23;20169;-73
2023/03/28 10:41:51;;;;;;;1999.90;999.90;;;;;;;;;;6213483;23;20224;-72
2023/03/28 10:44:36;;;;;;;1999.90;999.90;;;;;;;;;;6213647;23;20193;-73
2023/03/28 10:47:21;;;;;;;1999.90;999.90;;;;;;;;;;6213994;23;20614;-73
2023/03/28 10:50:19;;;;;;;1999.90;999.90;;;;;;;;;;6213598;23;20218;-73
2023/03/28 10:53:09;;;;;;;1999.90;999.90;;;;;;;;;;6213564;23;20544;-73
2023/03/28 10:55:59;;;;;;;1999.90;999.90;;;;;;;;;;6213708;23;20245;-73
2023/03/28 10:58:49;;;;;;;1999.90;999.90;;;;;;;;;;6213519;23;20297;-73
2023/03/28 11:01:38;;;;;;;1999.90;999.90;;;;;;;;;;6213136;23;20165;-73
2023/03/28 11:04:29;;;;;;;1999.90;999.90;;;;;;;;;;6213963;23;20193;-73
2023/03/28 11:07:18;;;;;;;1999.90;999.90;;;;;;;;;;6213562;23;20556;-73
2023/03/28 11:10:08;;;;;;;1999.90;999.90;;;;;;;;;;6214902;23;20511;-73
2023/03/28 11:13:03;;;;;;;1999.90;999.90;;;;;;;;;;6215386;23;20240;-73
2023/03/28 11:15:53;;;;;;;1999.90;999.90;;;;;;;;;;6215414;23;20166;-73
2023/03/28 11:18:43;;;;;;;1999.90;999.90;;;;;;;;;;6215717;23;20598;-73
2023/03/28 11:21:30;;;;;;;1999.90;999.90;;;;;;;;;;6215072;23;20688;-73
2023/03/28 11:24:24;;;;;;;1999.90;999.90;;;;;;;;;;6214210;23;20870;-73
2023/03/28 11:27:12;;;;;;;1999.90;999.90;;;;;;;;;;6215228;23;20560;-72
2023/03/28 11:29:58;;;;;;;1999.90;999.90;;;;;;;;;;6215152;23;20166;-71
2023/03/28 11:32:46;;;;;;;1999.90;999.90;;;;;;;;;;6215177;23;20201;-73
2023/03/28 11:35:32;;;;;;;1999.90;999.90;;;;;;;;;;6215212;23;20493;-73
2023/03/28 11:38:21;;;;;;;1999.90;999.90;;;;;;;;;;6215042;23;20618;-73
2023/03/28 11:41:09;;;;;;;1999.90;999.90;;;;;;;;;;6214948;23;20513;-73
2023/03/28 11:43:57;;;;;;;1999.90;999.90;;;;;;;;;;6214963;23;20193;-73
2023/03/28 11:46:46;;;;;;;1999.90;999.90;;;;;;;;;;6215081;23;20170;-73
2023/03/28 11:49:32;;;;;;;1999.90;999.90;;;;;;;;;;6214984;23;20496;-73
2023/03/28 11:52:20;;;;;;;1999.90;999.90;;;;;;;;;;6214791;23;20209;-72
2023/03/28 11:55:13;;;;;;;1999.90;999.90;;;;;;;;;;6214771;23;20765;-73
2023/03/28 11:58:02;;;;;;;1999.90;999.90;;;;;;;;;;6214893;23;20167;-73
2023/03/28 12:00:52;;;;;;;1999.90;999.90;;;;;;;;;;6214826;23;20174;-73
2023/03/28 12:03:53;;;;;;;1999.90;999.90;;;;;;;;;;6214716;23;20209;-73
2023/03/28 12:06:41;;;;;;;1999.90;999.90;;;;;;;;;;6214966;23;20169;-73
2023/03/28 12:09:30;;;;;;;1999.90;999.90;;;;;;;;;;6213620;23;20379;-73
2023/03/28 12:12:18;;;;;;;1999.90;999.90;;;;;;;;;;6214432;23;20250;-73
2023/03/28 12:15:07;;;;;;;1999.90;999.90;;;;;;;;;;6214851;23;20249;-73
2023/03/28 12:17:54;;;;;;;1999.90;999.90;;;;;;;;;;6214692;23;20169;-73
2023/03/28 12:20:42;;;;;;;1999.90;999.90;;;;;;;;;;6214767;23;20511;-73
2023/03/28 12:23:33;;;;;;;1999.90;999.90;;;;;;;;;;6214709;23;20253;-73
2023/03/28 12:26:22;;;;;;;1999.90;999.90;;;;;;;;;;6214791;23;20558;-73
2023/03/28 12:29:12;;;;;;;1999.90;999.90;;;;;;;;;;6214570;23;20299;-71
2023/03/28 12:32:00;;;;;;;1999.90;999.90;;;;;;;;;;6214417;23;20615;-72
2023/03/28 12:34:47;;;;;;;1999.90;999.90;;;;;;;;;;6214633;23;20162;-73
2023/03/28 12:37:36;;;;;;;1999.90;999.90;;;;;;;;;;6214426;23;20201;-73
2023/03/28 12:40:24;;;;;;;1999.90;999.90;;;;;;;;;;6214427;23;20240;-73
2023/03/28 12:43:12;;;;;;;1999.90;999.90;;;;;;;;;;6214395;23;20263;-73
2023/03/28 12:45:59;;;;;;;1999.90;999.90;;;;;;;;;;6214435;23;20212;-73
2023/03/28 12:48:47;;;;;;;1999.90;999.90;;;;;;;;;;6214463;23;20619;-73
2023/03/28 12:51:35;;;;;;;1999.90;999.90;;;;;;;;;;6214243;23;20630;-73
2023/03/28 12:54:25;;;;;;;1999.90;999.90;;;;;;;;;;6212765;23;20393;-73
2023/03/28 12:57:11;;;;;;;1999.90;999.90;;;;;;;;;;6214317;23;20171;-73
2023/03/28 13:00:05;;;;;;;1999.90;999.90;;;;;;;;;;6214831;23;20262;-71
2023/03/28 13:02:53;;;;;;;1999.90;999.90;;;;;;;;;;6214166;23;20219;-73
2023/03/28 13:05:44;;;;;;;1999.90;999.90;;;;;;;;;;6214302;23;20290;-73
2023/03/28 13:08:35;;;;;;;1999.90;999.90;;;;;;;;;;6214225;23;20262;-73
2023/03/28 13:11:25;;;;;;;1999.90;999.90;;;;;;;;;;6213980;23;20187;-71
2023/03/28 13:14:24;;;;;;;1999.90;999.90;;;;;;;;;;6214317;23;20521;-72
2023/03/28 13:17:18;;;;;;;1999.90;999.90;;;;;;;;;;6214245;23;20187;-73
2023/03/28 13:20:09;;;;;;;1999.90;999.90;;;;;;;;;;6214052;23;20170;-73
2023/03/28 13:23:00;;;;;;;1999.90;999.90;;;;;;;;;;6214111;23;20204;-73
2023/03/28 13:25:52;;;;;;;1999.90;999.90;;;;;;;;;;6212354;23;20499;-73
2023/03/28 13:28:41;;;;;;;1999.90;999.90;;;;;;;;;;6214074;23;20169;-73
2023/03/28 13:31:26;;;;;;;1999.90;999.90;;;;;;;;;;6213709;23;20512;-71
2023/03/28 13:34:17;;;;;;;1999.90;999.90;;;;;;;;;;6214066;23;20179;-73
2023/03/28 13:37:17;;;;;;;1999.90;999.90;;;;;;;;;;6213237;23;20378;-73
2023/03/28 13:40:06;;;;;;;1999.90;999.90;;;;;;;;;;6213889;23;20250;-72
2023/03/28 13:42:57;;;;;;;1999.90;999.90;;;;;;;;;;6213998;23;20246;-73
2023/03/28 13:45:42;;;;;;;1999.90;999.90;;;;;;;;;;6214045;23;20235;-73
2023/03/28 13:48:32;;;;;;;1999.90;999.90;;;;;;;;;;6213945;23;20171;-74
2023/03/28 13:51:19;;;;;;;1999.90;999.90;;;;;;;;;;6213823;23;20165;-72
2023/03/28 13:54:04;;;;;;;1999.90;999.90;;;;;;;;;;6214367;23;20183;-73
2023/03/28 13:56:51;;;;;;;1999.90;999.90;;;;;;;;;;6213922;23;20279;-73
2023/03/28 13:59:37;;;;;;;1999.90;999.90;;;;;;;;;;6213973;23;20210;-73
2023/03/28 14:02:30;;;;;;;1999.90;999.90;;;;;;;;;;6213608;23;20211;-73
2023/03/28 14:05:19;;;;;;;1999.90;999.90;;;;;;;;;;6213846;23;20194;-72
2023/03/28 14:08:19;;;;;;;1999.90;999.90;;;;;;;;;;6213623;23;20422;-73
2023/03/28 14:11:04;;;;;;;1999.90;999.90;;;;;;;;;;6213612;23;20510;-73
2023/03/28 14:13:56;;;;;;;1999.90;999.90;;;;;;;;;;6213894;23;20661;-73
2023/03/28 14:16:42;;;;;;;1999.90;999.90;;;;;;;;;;6213948;23;20169;-73
2023/03/28 14:19:31;;;;;;;1999.90;999.90;;;;;;;;;;6213805;23;20167;-73
2023/03/28 14:22:17;;;;;;;1999.90;999.90;;;;;;;;;;6212653;23;20872;-73
2023/03/28 14:25:06;;;;;;;1999.90;999.90;;;;;;;;;;6213630;23;20196;-73
2023/03/28 14:27:52;;;;;;;1999.90;999.90;;;;;;;;;;6213677;23;20188;-73
2023/03/28 14:30:41;;;;;;;1999.90;999.90;;;;;;;;;;6213677;23;20173;-74
2023/03/28 14:33:30;;;;;;;1999.90;999.90;;;;;;;;;;6213745;23;20335;-72
2023/03/28 14:36:17;;;;;;;1999.90;999.90;;;;;;;;;;6213725;23;20166;-73
2023/03/28 14:39:08;;;;;;;1999.90;999.90;;;;;;;;;;6213588;23;20217;-73
2023/03/28 14:41:53;;;;;;;1999.90;999.90;;;;;;;;;;6213509;23;20203;-73
2023/03/28 14:44:41;;;;;;;1999.90;999.90;;;;;;;;;;6214890;23;20172;-72
2023/03/28 14:47:29;;;;;;;1999.90;999.90;;;;;;;;;;6215587;23;20249;-73
2023/03/28 14:50:16;;;;;;;1999.90;999.90;;;;;;;;;;6215474;23;20638;-73
2023/03/28 14:53:02;;;;;;;1999.90;999.90;;;;;;;;;;6215281;23;20382;-72
2023/03/28 14:55:49;;;;;;;1999.90;999.90;;;;;;;;;;6215593;23;20172;-73
2023/03/28 14:58:36;;;;;;;1999.90;999.90;;;;;;;;;;6215921;23;20258;-73
2023/03/28 15:01:22;;;;;;;1999.90;999.90;;;;;;;;;;6215272;23;20167;-73
2023/03/28 15:04:11;;;;;;;1999.90;999.90;;;;;;;;;;6215430;23;20212;-73
2023/03/28 15:06:57;;;;;;;1999.90;999.90;;;;;;;;;;6214287;23;20904;-73
2023/03/28 15:09:42;;;;;;;1999.90;999.90;;;;;;;;;;6215431;23;20181;-74
2023/03/28 15:12:27;;;;;;;1999.90;999.90;;;;;;;;;;6215386;23;20245;-72
2023/03/28 15:15:19;;;;;;;1999.90;999.90;;;;;;;;;;6215325;23;20165;-74
2023/03/28 15:18:07;;;;;;;1999.90;999.90;;;;;;;;;;6215254;23;20167;-71
2023/03/28 15:20:55;;;;;;;1999.90;999.90;;;;;;;;;;6215219;23;20506;-73
2023/03/28 15:23:42;;;;;;;1999.90;999.90;;;;;;;;;;6214990;23;20207;-72
2023/03/28 15:26:29;;;;;;;1999.90;999.90;;;;;;;;;;6215440;23;20192;-73
2023/03/28 15:29:16;;;;;;;1999.90;999.90;;;;;;;;;;6215988;23;20170;-72
2023/03/28 15:32:02;;;;;;;1999.90;999.90;;;;;;;;;;6214551;23;20293;-72
2023/03/28 15:34:54;;;;;;;1999.90;999.90;;;;;;;;;;6215286;23;20634;-73
2023/03/28 15:37:44;;;;;;;1999.90;999.90;;;;;;;;;;6215100;23;20214;-73
2023/03/28 15:40:31;;;;;;;1999.90;999.90;;;;;;;;;;6215032;23;20690;-73
2023/03/28 15:43:28;;;;;;;1999.90;999.90;;;;;;;;;;6217421;23;20200;-73
2023/03/28 15:46:14;;;;;;;1999.90;999.90;;;;;;;;;;6215272;23;20188;-74
2023/03/28 15:49:00;;;;;;;1999.90;999.90;;;;;;;;;;6214717;23;20394;-73
2023/03/28 15:51:48;;;;;;;1999.90;999.90;;;;;;;;;;6214832;23;20256;-73
2023/03/28 15:54:41;;;;;;;1999.90;999.90;;;;;;;;;;6215321;23;20169;-72
2023/03/28 15:57:28;;;;;;;1999.90;999.90;;;;;;;;;;6218847;23;20507;-72
2023/03/28 16:00:28;;;;;;;1999.90;999.90;;;;;;;;;;6218382;23;20247;-71
2023/03/28 16:03:18;;;;;;;1999.90;999.90;;;;;;;;;;6216745;23;20211;-73
2023/03/28 16:06:13;;;;;;;1999.90;999.90;;;;;;;;;;6215176;23;20194;-71
2023/03/28 16:09:12;;;;;;;1999.90;999.90;;;;;;;;;;6214817;23;20246;-71
2023/03/28 16:11:59;;;;;;;1999.90;999.90;;;;;;;;;;6214338;23;20206;-73
2023/03/28 16:14:46;;;;;;;1999.90;999.90;;;;;;;;;;6212499;23;20705;-73
2023/03/28 16:17:32;;;;;;;1999.90;999.90;;;;;;;;;;6212719;23;20244;-72
2023/03/28 16:20:18;;;;;;;1999.90;999.90;;;;;;;;;;6213118;23;20494;-72
2023/03/28 16:23:03;;;;;;;1999.90;999.90;;;;;;;;;;6212452;23;20250;-72
2023/03/28 16:25:48;;;;;;;1999.90;999.90;;;;;;;;;;6212657;23;20194;-72
2023/03/28 16:28:35;;;;;;;1999.90;999.90;;;;;;;;;;6212426;23;20378;-72
2023/03/28 16:31:20;;;;;;;1999.90;999.90;;;;;;;;;;6212009;23;20514;-73
2023/03/28 16:34:05;;;;;;;1999.90;999.90;;;;;;;;;;6212587;23;20167;-72
2023/03/28 16:36:50;;;;;;;1999.90;999.90;;;;;;;;;;6212252;23;20209;-71
2023/03/28 16:39:36;;;;;;;1999.90;999.90;;;;;;;;;;6214476;23;20178;-72